• Join FlightAware (Why Join?)
  • Login
  • US Flag 
05:10AM EDT


 

Airport Tracker/Info


-or-


 

Live Flight TrackerFlight Track Log ✈ EJA831 ✈ 30-Sep-2013 ✈ KOAK - KSFO

Flight Track Log - Related Links

Times and Time Zones

All times are in EDT time to prevent confusion due to time zone crossing. See the EJA831 flight status page for this flight to view local times or setup timezone preferences in your user account.

Time Position Orientation Groundspeed Altitude Reporting Facility
EDT Latitude Longitude Course Direction KTS MPH feet Rate Location/Type
05:19PM 37.7500 -122.2833 288° West 196 226 2,000  Level Northern Cal TRACON
05:20PM 37.7667 -122.3500 288° West 203 234 3,100 1,980 Climbing Northern Cal TRACON
05:21PM 37.7167 -122.4000 218° Southwest 222 255 6,000 3,360 Climbing Northern Cal TRACON
05:22PM 37.6667 -122.4167 195° South 233 268 9,900 2,700 Climbing Northern Cal TRACON
05:23PM 37.5883 -122.4014 171° South 277 319 11,800 2,520 Climbing Oakland Center
05:24PM 37.5103 -122.3239 142° Southeast 324 373 15,400 2,820 Climbing Oakland Center
05:25PM 37.4836 -122.2117 107° East 334 384 17,700 1,980 Climbing Oakland Center
05:26PM 37.4544 -122.0894 107° East 360 414 19,500 1,800 Climbing Oakland Center
05:27PM 37.4242 -121.9650 107° East 371 427 21,400 1,800 Climbing Oakland Center
05:28PM 37.3933 -121.8378 107° East 379 436 23,300 1,800 Climbing Oakland Center
05:29PM 37.3633 -121.7108 107° East 382 440 25,200 1,860 Climbing Oakland Center
05:30PM 37.3311 -121.5783 107° East 377 434 27,200 1,920 Climbing Oakland Center
05:31PM 37.3000 -121.4542 107° East 375 432 29,200 1,440 Climbing Oakland Center
05:32PM 37.2686 -121.3264 107° East 382 440 30,200 840 Climbing Oakland Center
05:33PM 37.2350 -121.1942 108° East 396 456 31,000 360 Climbing Oakland Center
05:34PM 37.1997 -121.0497 107° East 426 490 31,000  Level Oakland Center
05:35PM 37.1556 -120.8706 107° East 447 514 31,000  Level Oakland Center
05:36PM 37.1558 -120.7164 90° East 445 512 31,000  Level Oakland Center
05:37PM 37.1694 -120.5608 84° East 449 517 31,000  Level Oakland Center
05:38PM 37.1839 -120.4061 83° East 449 517 31,000  Level Oakland Center
05:39PM 37.1983 -120.2511 83° East 449 517 31,000  Level Oakland Center
05:40PM 37.1875 -120.0967 95° East 447 514 31,000  Level Oakland Center
05:41PM 37.1733 -119.9417 96° East 448 516 31,000  Level Oakland Center
05:42PM 37.1556 -119.7672 97° East 449 517 31,000  Level Oakland Center
05:43PM 37.1392 -119.6139 98° East 446 513 31,000  Level Oakland Center
05:44PM 37.1225 -119.4572 98° East 450 518 31,000  Level Oakland Center
05:46PM 37.0892 -119.1494 98° East 448 516 31,000  Level Oakland Center
05:47PM 37.0714 -118.9950 98° East 448 516 31,000  Level Oakland Center
05:48PM 37.0547 -118.8406 98° East 448 516 31,000  Level Oakland Center
05:49PM 37.0383 -118.6878 98° East 446 513 31,000  Level Oakland Center
05:50PM 37.0211 -118.5336 98° East 446 513 31,000  Level Oakland Center
05:51PM 37.0011 -118.3678 99° East 450 518 31,000  Level Oakland Center
05:52PM 36.9833 -118.2131 98° East 450 518 31,000  Level Oakland Center
05:53PM 36.9594 -118.0242 99° East 458 527 31,000  Level Oakland Center
05:55PM 36.9425 -117.8786 98° East 434 499 31,000  Level Oakland Center
05:56PM 36.9250 -117.7386 99° East 415 478 31,000  Level Oakland Center
05:57PM 36.9086 -117.5989 98° East 410 472 31,000  Level Oakland Center
05:58PM 36.8911 -117.4619 99° East 403 464 31,000  Level Oakland Center
05:59PM 36.8736 -117.3197 99° East 411 473 31,000  Level Oakland Center
06:00PM 36.8547 -117.1722 99° East 423 487 31,000 -60 Level Oakland Center
06:01PM 36.8364 -117.0258 99° East 427 491 30,900 -600 Descending Oakland Center
06:02PM 36.8167 -116.8758 99° East 435 501 29,800 -1,140 Descending Oakland Center
06:02PM 36.8019 -116.7864 102° East 437 503 29,200 -540 Descending Los Angeles Center
06:03PM 36.7394 -116.6581 121° Southeast 433 498 29,000 -120 Descending Los Angeles Center
06:04PM 36.6756 -116.5700 132° Southeast 431 496 29,000 -1,020 Level Los Angeles Center
06:05PM 36.5786 -116.4311 131° Southeast 441 507 26,900 -2,220 Descending Los Angeles Center
06:06PM 36.4981 -116.3153 131° Southeast 427 491 24,500 -2,340 Descending Los Angeles Center
06:07PM 36.4094 -116.1903 131° Southeast 424 488 22,100 -2,400 Descending Los Angeles Center
06:08PM 36.3558 -116.1183 133° Southeast 420 483 20,500 -2,160 Descending Los Angeles Center
06:08PM 36.3325 -116.0844 131° Southeast 415 478 19,900 -1,980 Descending Los Angeles Center
06:09PM 36.2628 -115.9847 131° Southeast 360 414 17,700 -1,980 Descending Los Angeles Center
06:10PM 36.1994 -115.8931 131° Southeast 353 406 15,900 -1,500 Descending Los Angeles Center
06:11PM 36.1658 -115.7881 112° Southeast 345 397 14,900 -1,140 Descending Los Angeles Center
06:11PM 36.1597 -115.7736 118° Southeast 348 400 14,800 -960 Descending Los Angeles Center
06:12PM 36.1253 -115.6678 112° Southeast 332 382 13,800 -960 Descending Los Angeles Center
06:14PM 36.0676 -115.5294 111° Southeast  Level FlightAware Approximate
06:14PM 36.0661 -115.4825 111° Southeast 300 345 12,000  Level Los Angeles Center
06:15PM 36.0664 -115.4833 292° West 297 342 12,000 -900 Level Los Angeles Center
06:15PM 36.0347 -115.3864 112° Southeast 305 351 11,100 -1,080 Descending Los Angeles Center
06:16PM 36.0300 -115.3664 106° East 304 350 10,900 -1,140 Descending Los Angeles Center
06:17PM 36.0231 -115.2647 95° East 303 349 9,700 -1,140 Descending Los Angeles Center
06:18PM 36.0156 -115.1675 95° East 291 335 8,600 -960 Descending Los Angeles Center
06:18PM 36.0128 -115.0961 93° East 231 266 8,000 -600 Descending Los Angeles Center
06:19PM 36.0114 -115.0839 98° East 258 297 8,000 -600 Level Los Angeles Center
06:19PM 36.0572 -115.0519 29° Northeast 237 273 7,400 -780 Descending Los Angeles Center
06:20PM 36.0672 -115.0494 11° North 246 283 7,200 -1,320 Descending Los Angeles Center
06:20PM 36.1250 -115.0456 North 219 252 6,100 -1,260 Descending Los Angeles Center
06:21PM 36.1311 -115.0447 North 236 272 5,900 -1,620 Descending Los Angeles Center
06:22PM 36.1564 -115.0911 304° West 181 208 4,300 -1,980 Descending Los Angeles Center
06:22PM 36.1533 -115.0975 239° Southwest 190 219 3,900 -1,380 Descending Los Angeles Center
06:23PM 36.1292 -115.1347 231° Southwest 153 176 2,900 -1,200 Descending Los Angeles Center
06:23PM 36.1244 -115.1386 214° Southwest 168 193 2,700 -660 Descending Los Angeles Center
06:24PM 36.0878 -115.1567 202° Southwest 148 170 2,100 -600 Descending Los Angeles Center
06:26PM 35.9924 -114.9512 95° East  Level FlightAware Approximate
06:33PM 36.0781 -115.1186 282° West  Level FlightAware Approximate
06:34PM 36.0667 -115.1500 180° South  Level FlightAware Approximate
06:35PM 36.1006 -115.2860 180° South  Level Estimated
06:36PM 36.0667 -115.1500 180° South  Level FlightAware Approximate
06:37PM 36.1006 -115.2860 180° South  Level Estimated
06:38PM 36.0667 -115.1500 180° South  Level FlightAware Approximate
06:39PM 36.1006 -115.2860 180° South  Level Estimated
06:40PM 36.0667 -115.1500 180° South  Level FlightAware Approximate